Time;durP1;ratioP1;P1;durP2;ratioP2;P2;SDS_P1;SDS_P2;PMS_P1;PMS_P2;Temp;Humidity;BMP_temperature;BMP_pressure;BME280_temperature;BME280_humidity;BME280_pressure;Samples;Min_cycle;Max_cycle;Signal;HPM_P1;HPM_P2
2021/05/25 00:00:28;;;;;;;4.95;1.52;;;25.40;37.70;;;;;;5066867;28;20024;-78
2021/05/25 00:02:56;;;;;;;7.00;1.95;;;25.30;38.70;;;;;;5058871;28;20028;-78
2021/05/25 00:05:25;;;;;;;6.85;1.52;;;25.20;38.40;;;;;;5056798;28;20082;-78
2021/05/25 00:07:54;;;;;;;4.20;0.80;;;25.00;38.80;;;;;;5073908;28;20077;-77
2021/05/25 00:10:22;;;;;;;5.90;1.42;;;25.00;38.70;;;;;;5073537;28;20082;-77
2021/05/25 00:12:48;;;;;;;3.97;1.38;;;24.70;39.50;;;;;;5059942;28;20127;-77
2021/05/25 00:15:19;;;;;;;5.47;0.93;;;24.70;38.80;;;;;;5074230;28;20444;-77
2021/05/25 00:17:45;;;;;;;8.98;1.17;;;24.70;39.00;;;;;;5050790;28;20367;-77
2021/05/25 00:20:13;;;;;;;3.65;0.70;;;24.70;38.60;;;;;;5064349;28;20033;-78
2021/05/25 00:22:41;;;;;;;1.15;0.50;;;24.70;39.00;;;;;;5071909;28;20017;-77
2021/05/25 00:25:12;;;;;;;1.05;0.50;;;24.70;38.00;;;;;;5071911;28;20085;-77
2021/05/25 00:27:40;;;;;;;2.45;0.70;;;24.70;38.30;;;;;;5074509;28;20398;-78
2021/05/25 00:30:08;;;;;;;2.65;0.82;;;24.60;38.70;;;;;;5074927;28;20046;-78
2021/05/25 00:32:35;;;;;;;3.50;0.80;;;24.80;38.20;;;;;;5071093;28;20074;-77
2021/05/25 00:35:02;;;;;;;3.90;0.70;;;24.90;37.50;;;;;;5077516;28;20028;-77
2021/05/25 00:37:29;;;;;;;3.53;0.47;;;24.80;37.10;;;;;;5056969;28;20363;-79
2021/05/25 00:39:55;;;;;;;1.50;0.60;;;24.80;37.20;;;;;;5063123;28;20102;-75
2021/05/25 00:42:22;;;;;;;2.40;0.60;;;24.80;37.40;;;;;;5078974;28;20028;-77
2021/05/25 00:44:48;;;;;;;3.20;1.10;;;24.60;37.60;;;;;;5072976;28;20044;-78
2021/05/25 00:47:14;;;;;;;2.03;0.68;;;24.50;38.60;;;;;;5072152;28;20024;-77
2021/05/25 00:49:41;;;;;;;1.77;0.40;;;24.70;36.90;;;;;;5067133;28;20032;-77
2021/05/25 00:52:07;;;;;;;1.55;0.47;;;24.40;37.20;;;;;;5065345;28;20036;-79
2021/05/25 00:54:34;;;;;;;1.08;0.50;;;24.40;37.50;;;;;;5065096;28;20041;-77
2021/05/25 00:57:01;;;;;;;2.72;0.60;;;24.00;38.20;;;;;;5067423;28;20032;-77
2021/05/25 00:59:28;;;;;;;0.98;0.57;;;23.90;38.70;;;;;;5065336;28;20028;-77
2021/05/25 01:01:54;;;;;;;2.03;0.70;;;24.00;38.20;;;;;;5072649;28;20048;-78
2021/05/25 01:04:21;;;;;;;3.35;1.02;;;23.80;39.30;;;;;;5061033;28;20028;-80
2021/05/25 01:06:47;;;;;;;2.30;0.70;;;23.90;39.30;;;;;;5065630;28;20098;-80
2021/05/25 01:09:17;;;;;;;1.30;0.60;;;24.00;39.20;;;;;;5049740;28;20038;-81
2021/05/25 01:11:44;;;;;;;2.30;1.15;;;24.00;39.00;;;;;;5069709;28;20016;-80
2021/05/25 01:14:11;;;;;;;1.20;0.70;;;23.60;39.70;;;;;;5065107;28;20025;-80
2021/05/25 01:16:38;;;;;;;0.88;0.40;;;23.70;39.60;;;;;;5068522;28;20043;-77
2021/05/25 01:19:04;;;;;;;2.42;0.70;;;23.70;39.70;;;;;;5068340;28;20016;-79
2021/05/25 01:21:38;;;;;;;3.13;0.80;;;23.50;40.10;;;;;;5066095;28;20029;-79
2021/05/25 01:24:05;;;;;;;1.30;1.10;;;23.40;40.40;;;;;;5070298;28;20025;-79
2021/05/25 01:26:32;;;;;;;0.57;0.50;;;23.20;40.60;;;;;;5041091;28;20032;-79
2021/05/25 01:28:58;;;;;;;2.20;0.82;;;23.20;40.90;;;;;;5056893;28;20037;-79
2021/05/25 01:31:25;;;;;;;3.63;0.80;;;22.90;41.50;;;;;;5076720;28;20036;-79
2021/05/25 01:33:51;;;;;;;2.40;0.45;;;23.00;41.50;;;;;;5085805;28;20170;-79
2021/05/25 01:36:18;;;;;;;0.50;0.38;;;23.10;41.20;;;;;;5068785;28;20040;-77
2021/05/25 01:38:44;;;;;;;2.75;0.80;;;22.90;41.70;;;;;;5080293;28;20453;-79
2021/05/25 01:41:11;;;;;;;1.10;0.60;;;22.80;41.90;;;;;;5077517;28;20103;-79
2021/05/25 01:43:38;;;;;;;1.70;0.70;;;22.80;41.90;;;;;;5078198;28;20024;-81
2021/05/25 01:46:05;;;;;;;1.08;0.70;;;22.60;42.10;;;;;;5065026;28;20025;-79
2021/05/25 01:48:32;;;;;;;3.15;0.95;;;22.50;42.20;;;;;;5074138;28;20024;-80
2021/05/25 01:50:59;;;;;;;1.77;1.67;;;22.50;42.50;;;;;;5074516;28;20029;-79
2021/05/25 01:53:28;;;;;;;0.63;0.63;;;22.40;42.60;;;;;;5075361;28;20032;-79
2021/05/25 01:55:57;;;;;;;1.70;0.80;;;22.30;42.60;;;;;;5075918;28;20021;-78
2021/05/25 01:58:33;;;;;;;3.75;1.00;;;22.00;43.00;;;;;;5076209;28;20021;-80
2021/05/25 02:01:06;;;;;;;2.83;1.00;;;21.80;43.20;;;;;;5076199;28;20024;-80
2021/05/25 02:03:33;;;;;;;1.73;1.10;;;21.80;43.40;;;;;;5058320;28;20391;-79
2021/05/25 02:06:00;;;;;;;1.73;1.02;;;21.80;43.70;;;;;;5059724;28;20024;-79
2021/05/25 02:08:27;;;;;;;0.77;0.68;;;21.70;44.20;;;;;;5074903;28;20016;-77
2021/05/25 02:11:02;;;;;;;1.15;0.60;;;21.60;44.00;;;;;;5058008;28;20039;-78
2021/05/25 02:13:31;;;;;;;1.83;0.55;;;21.50;44.20;;;;;;5076364;28;20402;-77
2021/05/25 02:16:03;;;;;;;0.75;0.70;;;21.40;44.70;;;;;;5076225;28;20016;-79
2021/05/25 02:18:32;;;;;;;3.70;0.82;;;21.10;44.90;;;;;;5068024;28;20021;-79
2021/05/25 02:21:04;;;;;;;3.30;0.60;;;20.90;45.50;;;;;;5073185;28;20035;-79
2021/05/25 02:23:30;;;;;;;0.73;0.60;;;20.80;45.60;;;;;;5074692;28;20016;-78
2021/05/25 02:25:57;;;;;;;0.73;0.73;;;20.80;45.80;;;;;;5055355;28;20464;-79
2021/05/25 02:28:24;;;;;;;0.82;0.60;;;20.70;46.20;;;;;;5075694;28;20104;-79
2021/05/25 02:30:51;;;;;;;0.77;0.77;;;20.70;46.50;;;;;;5055677;28;20029;-80
2021/05/25 02:33:20;;;;;;;1.90;0.70;;;20.40;46.80;;;;;;5060183;28;20029;-80
2021/05/25 02:35:49;;;;;;;1.00;0.82;;;20.30;46.70;;;;;;5079019;28;20036;-80
2021/05/25 02:38:16;;;;;;;0.50;0.50;;;20.20;47.60;;;;;;5057414;28;20111;-78
2021/05/25 02:40:47;;;;;;;1.50;1.40;;;20.10;47.60;;;;;;5074485;28;20036;-79
2021/05/25 02:43:15;;;;;;;1.02;0.80;;;19.90;48.10;;;;;;5056558;28;20025;-79
2021/05/25 02:45:42;;;;;;;1.98;1.20;;;19.90;48.70;;;;;;5057350;28;20025;-79
2021/05/25 02:48:09;;;;;;;0.60;0.60;;;19.70;48.60;;;;;;5058504;28;20033;-79
2021/05/25 02:50:36;;;;;;;0.50;0.50;;;19.60;48.90;;;;;;5069247;28;20123;-79
2021/05/25 02:53:03;;;;;;;0.75;0.60;;;19.60;48.60;;;;;;5045492;28;20045;-79
2021/05/25 02:55:32;;;;;;;2.22;0.80;;;19.50;49.50;;;;;;5066812;28;20103;-78
2021/05/25 02:58:01;;;;;;;0.50;0.50;;;19.40;49.70;;;;;;5067701;28;20060;-78
2021/05/25 03:00:39;;;;;;;0.65;0.65;;;19.30;49.40;;;;;;5056543;28;20508;-78
2021/05/25 03:03:07;;;;;;;0.60;0.60;;;19.10;50.30;;;;;;5060691;28;20028;-79
2021/05/25 03:05:35;;;;;;;0.60;0.60;;;19.30;50.20;;;;;;5072903;28;20440;-80
2021/05/25 03:08:03;;;;;;;0.80;0.80;;;19.40;49.70;;;;;;5073944;28;20077;-80
2021/05/25 03:10:32;;;;;;;0.80;0.70;;;19.20;50.40;;;;;;5074102;28;20025;-79
2021/05/25 03:12:59;;;;;;;1.05;0.80;;;19.10;50.70;;;;;;5074083;28;20464;-80
2021/05/25 03:15:30;;;;;;;1.08;0.82;;;18.90;50.80;;;;;;5058127;28;20063;-80
2021/05/25 03:17:57;;;;;;;2.00;0.73;;;18.90;51.50;;;;;;5072058;28;20060;-79
2021/05/25 03:20:24;;;;;;;1.60;1.00;;;18.70;51.70;;;;;;5072494;28;20028;-79
2021/05/25 03:22:51;;;;;;;0.70;0.70;;;18.50;52.30;;;;;;5073912;28;20032;-78
2021/05/25 03:25:18;;;;;;;2.75;0.93;;;18.60;51.90;;;;;;5060873;28;20513;-80
2021/05/25 03:27:45;;;;;;;3.05;1.13;;;18.40;52.00;;;;;;5065623;28;20360;-80
2021/05/25 03:30:16;;;;;;;0.70;0.70;;;18.50;52.20;;;;;;5056014;28;20032;-80
2021/05/25 03:32:42;;;;;;;0.60;0.60;;;18.50;52.80;;;;;;5070831;28;20060;-80
2021/05/25 03:35:10;;;;;;;0.60;0.60;;;18.50;52.90;;;;;;5066710;28;20491;-78
2021/05/25 03:37:37;;;;;;;0.57;0.57;;;18.40;53.10;;;;;;5060172;28;20408;-79
2021/05/25 03:40:06;;;;;;;0.70;0.70;;;18.30;53.00;;;;;;5072335;28;20048;-77
2021/05/25 03:42:32;;;;;;;1.30;1.00;;;18.20;53.30;;;;;;5085298;28;20035;-78
2021/05/25 03:44:59;;;;;;;1.15;0.80;;;18.20;53.40;;;;;;5055971;28;20039;-79
2021/05/25 03:47:26;;;;;;;0.80;0.80;;;18.20;53.40;;;;;;5057057;28;20072;-78
2021/05/25 03:49:54;;;;;;;0.85;0.70;;;18.00;53.50;;;;;;5058962;28;20021;-78
2021/05/25 03:52:21;;;;;;;0.90;0.85;;;18.20;54.00;;;;;;5056247;28;20108;-79
2021/05/25 03:54:57;;;;;;;0.90;0.90;;;18.20;53.60;;;;;;5055552;28;20028;-78
2021/05/25 03:59:56;;;;;;;0.98;0.63;;;18.00;54.20;;;;;;5063751;28;20435;-78
2021/05/25 04:02:23;;;;;;;0.85;0.85;;;17.80;55.40;;;;;;5055732;28;20041;-79
2021/05/25 04:04:49;;;;;;;1.05;0.63;;;17.90;54.60;;;;;;5062769;28;20071;-78
2021/05/25 04:07:16;;;;;;;0.70;0.70;;;17.70;55.20;;;;;;5072436;28;20177;-78
2021/05/25 04:09:43;;;;;;;0.80;0.80;;;17.70;55.70;;;;;;5053452;28;20039;-78
2021/05/25 04:12:09;;;;;;;0.60;0.60;;;17.80;55.20;;;;;;5071782;28;20021;-78
2021/05/25 04:14:36;;;;;;;0.60;0.60;;;17.70;56.00;;;;;;5070985;28;20025;-78
2021/05/25 04:17:02;;;;;;;0.60;0.60;;;17.80;55.70;;;;;;5055731;28;20028;-77
2021/05/25 04:19:29;;;;;;;0.73;0.73;;;17.60;55.20;;;;;;5062076;28;20051;-78
2021/05/25 04:21:55;;;;;;;0.95;0.77;;;17.60;56.20;;;;;;5069680;28;20341;-78
2021/05/25 04:24:22;;;;;;;0.70;0.70;;;17.70;55.00;;;;;;5072148;28;20074;-78
2021/05/25 04:26:48;;;;;;;1.35;0.70;;;17.70;55.50;;;;;;5072828;28;20387;-78
2021/05/25 04:29:15;;;;;;;0.60;0.60;;;17.70;55.80;;;;;;5071954;28;20033;-79
2021/05/25 04:31:41;;;;;;;0.70;0.70;;;17.70;55.70;;;;;;5072346;28;20031;-78
2021/05/25 04:34:07;;;;;;;1.55;0.80;;;17.70;54.80;;;;;;5070885;28;20467;-78
2021/05/25 04:36:34;;;;;;;0.93;0.93;;;17.60;56.20;;;;;;5072851;28;20071;-78
2021/05/25 04:39:00;;;;;;;0.93;0.93;;;17.60;56.50;;;;;;5068423;28;20017;-78
2021/05/25 04:41:28;;;;;;;2.45;0.95;;;17.70;56.80;;;;;;5070977;28;20464;-78
2021/05/25 04:43:54;;;;;;;0.70;0.70;;;17.60;56.30;;;;;;5047890;28;20063;-78
2021/05/25 04:46:21;;;;;;;0.68;0.63;;;17.40;56.80;;;;;;5070328;28;20025;-78
2021/05/25 04:48:47;;;;;;;0.70;0.70;;;17.40;56.10;;;;;;5072694;28;20483;-78
2021/05/25 04:51:13;;;;;;;1.10;1.10;;;17.30;57.60;;;;;;5068508;28;20032;-78
2021/05/25 04:53:40;;;;;;;0.70;0.70;;;17.30;57.60;;;;;;5055408;28;20039;-78
2021/05/25 04:56:06;;;;;;;3.30;0.88;;;17.10;57.40;;;;;;5072573;28;20063;-78
2021/05/25 04:58:33;;;;;;;0.70;0.70;;;17.10;59.00;;;;;;5065359;28;20024;-79
2021/05/25 05:00:59;;;;;;;0.70;0.70;;;17.00;58.40;;;;;;5063941;28;20028;-78
2021/05/25 05:03:26;;;;;;;0.68;0.68;;;17.00;58.40;;;;;;5067822;28;20078;-79
2021/05/25 05:05:54;;;;;;;0.70;0.70;;;17.10;57.30;;;;;;5057191;28;20021;-79
2021/05/25 05:08:21;;;;;;;0.65;0.65;;;17.20;58.10;;;;;;5053845;28;20028;-78
2021/05/25 05:10:47;;;;;;;0.80;0.80;;;17.20;57.90;;;;;;5058388;28;20035;-78
2021/05/25 05:13:14;;;;;;;0.70;0.70;;;17.20;58.30;;;;;;5071932;28;20052;-79
2021/05/25 05:15:40;;;;;;;2.35;0.73;;;17.00;58.70;;;;;;5067343;28;20411;-78
2021/05/25 05:18:07;;;;;;;1.15;1.10;;;17.00;58.60;;;;;;5065867;28;20043;-78
2021/05/25 05:20:33;;;;;;;0.70;0.70;;;16.90;58.30;;;;;;5071714;28;20028;-79
2021/05/25 05:22:59;;;;;;;2.40;0.70;;;16.90;59.20;;;;;;5081059;28;20017;-78
2021/05/25 05:25:26;;;;;;;0.70;0.70;;;16.90;58.80;;;;;;5084339;28;20025;-78
2021/05/25 05:27:53;;;;;;;1.08;1.08;;;16.90;58.50;;;;;;5069460;28;20679;-78
2021/05/25 05:30:20;;;;;;;1.17;0.73;;;16.90;59.90;;;;;;5046915;28;20356;-78
2021/05/25 05:32:46;;;;;;;1.35;1.25;;;16.90;59.60;;;;;;5072872;28;20029;-78
2021/05/25 05:35:12;;;;;;;0.73;0.73;;;16.90;60.00;;;;;;5063723;28;20032;-78
2021/05/25 05:37:39;;;;;;;0.70;0.70;;;16.90;60.20;;;;;;5060566;28;20482;-78
2021/05/25 05:40:07;;;;;;;1.17;1.15;;;16.80;61.10;;;;;;5077612;28;20024;-78
2021/05/25 05:42:33;;;;;;;0.68;0.60;;;16.70;60.10;;;;;;5051423;28;20045;-78
2021/05/25 05:45:00;;;;;;;0.82;0.80;;;16.60;60.80;;;;;;5066233;28;20029;-78
2021/05/25 05:47:26;;;;;;;0.60;0.60;;;16.60;60.80;;;;;;5062007;28;20372;-78
2021/05/25 05:49:53;;;;;;;0.60;0.60;;;16.60;61.10;;;;;;5066287;28;20028;-78
2021/05/25 05:52:19;;;;;;;0.70;0.70;;;16.60;59.60;;;;;;5049184;28;20033;-77
2021/05/25 05:54:47;;;;;;;0.60;0.60;;;16.50;61.10;;;;;;5079930;28;20413;-77
2021/05/25 05:57:15;;;;;;;1.02;0.63;;;16.50;59.40;;;;;;5067547;28;20459;-77
2021/05/25 05:59:41;;;;;;;0.60;0.60;;;16.70;60.70;;;;;;5081721;28;20452;-78
2021/05/25 06:02:08;;;;;;;0.50;0.50;;;16.60;59.80;;;;;;5074679;28;20021;-78
2021/05/25 06:04:34;;;;;;;0.60;0.60;;;16.60;59.30;;;;;;5071836;28;20120;-78
2021/05/25 06:07:01;;;;;;;0.60;0.60;;;16.70;58.90;;;;;;5058234;28;20024;-77
2021/05/25 06:09:27;;;;;;;0.65;0.63;;;16.70;58.80;;;;;;5072015;28;20059;-78
2021/05/25 06:11:53;;;;;;;0.47;0.47;;;16.50;61.40;;;;;;5044323;28;20024;-78
2021/05/25 06:14:20;;;;;;;1.23;0.80;;;16.60;60.50;;;;;;5077779;28;20028;-77
2021/05/25 06:16:46;;;;;;;0.60;0.60;;;16.60;59.30;;;;;;5076088;28;20028;-77
2021/05/25 06:19:13;;;;;;;0.60;0.60;;;16.60;61.10;;;;;;5048116;28;20473;-78
2021/05/25 06:21:39;;;;;;;1.10;0.70;;;16.70;60.50;;;;;;5050644;28;20071;-78
2021/05/25 06:24:06;;;;;;;0.90;0.80;;;16.60;60.50;;;;;;5060945;28;20131;-78
2021/05/25 06:26:33;;;;;;;1.25;1.15;;;16.60;61.40;;;;;;5056788;28;20024;-78
2021/05/25 06:28:59;;;;;;;0.75;0.75;;;16.70;60.20;;;;;;5071856;28;20351;-77
2021/05/25 06:31:25;;;;;;;0.65;0.60;;;16.70;59.90;;;;;;5052591;28;20029;-79
2021/05/25 06:33:52;;;;;;;2.78;1.30;;;16.70;59.70;;;;;;5053182;28;20050;-78
2021/05/25 06:36:18;;;;;;;0.70;0.70;;;16.70;59.60;;;;;;5056599;28;20054;-78
2021/05/25 06:38:44;;;;;;;0.70;0.70;;;16.70;59.60;;;;;;5068567;28;20025;-79
2021/05/25 06:41:11;;;;;;;1.05;0.65;;;16.70;59.00;;;;;;5062419;28;20031;-77
2021/05/25 06:43:37;;;;;;;0.60;0.60;;;16.60;59.30;;;;;;5075692;28;20025;-78
2021/05/25 06:46:06;;;;;;;0.80;0.80;;;16.70;59.00;;;;;;5073966;28;20456;-78
2021/05/25 06:48:33;;;;;;;0.73;0.73;;;16.70;59.20;;;;;;5044155;28;20079;-77
2021/05/25 06:51:02;;;;;;;1.20;1.20;;;16.70;58.80;;;;;;5057818;28;20448;-78
2021/05/25 06:53:28;;;;;;;0.50;0.50;;;16.60;59.30;;;;;;5049059;28;20040;-77
2021/05/25 06:55:54;;;;;;;0.68;0.68;;;16.60;59.70;;;;;;5061713;28;20079;-78
2021/05/25 06:58:21;;;;;;;0.80;0.80;;;16.50;59.80;;;;;;5059416;28;20035;-78
2021/05/25 07:00:47;;;;;;;0.70;0.70;;;16.50;59.70;;;;;;5085132;28;20028;-78
2021/05/25 07:03:14;;;;;;;0.70;0.70;;;16.50;59.80;;;;;;5055113;28;20021;-78
2021/05/25 07:05:40;;;;;;;1.00;1.00;;;16.50;59.50;;;;;;5080770;28;20021;-78
2021/05/25 07:08:07;;;;;;;0.70;0.70;;;16.50;58.40;;;;;;5065298;28;20035;-77
2021/05/25 07:10:33;;;;;;;0.50;0.50;;;16.50;57.80;;;;;;5073289;28;20036;-78
2021/05/25 07:12:59;;;;;;;0.60;0.60;;;16.50;59.80;;;;;;5053530;28;20048;-78
2021/05/25 07:15:26;;;;;;;0.75;0.75;;;16.40;60.90;;;;;;5066028;28;20035;-78
2021/05/25 07:17:58;;;;;;;0.73;0.73;;;16.40;60.50;;;;;;5072068;28;20360;-78
2021/05/25 07:20:26;;;;;;;0.88;0.60;;;16.40;60.40;;;;;;5073205;28;20055;-78
2021/05/25 07:22:54;;;;;;;0.60;0.60;;;16.30;60.00;;;;;;5071272;28;20761;-77
2021/05/25 07:25:23;;;;;;;1.75;1.02;;;16.30;60.00;;;;;;5068633;28;20035;-78
2021/05/25 07:27:50;;;;;;;1.05;0.85;;;16.30;58.90;;;;;;5055312;28;20036;-78
2021/05/25 07:30:17;;;;;;;0.60;0.60;;;16.30;59.80;;;;;;5059908;28;20029;-78
2021/05/25 07:32:44;;;;;;;0.73;0.73;;;16.30;60.20;;;;;;5073756;28;20024;-78
2021/05/25 07:35:11;;;;;;;4.78;0.98;;;16.20;60.00;;;;;;5066314;28;20325;-78
2021/05/25 07:37:39;;;;;;;0.98;0.98;;;16.20;60.10;;;;;;5064961;28;20036;-78
2021/05/25 07:40:07;;;;;;;0.60;0.60;;;16.20;59.60;;;;;;5073376;28;20017;-78
2021/05/25 07:42:34;;;;;;;0.63;0.63;;;16.20;60.00;;;;;;5059234;28;20024;-78
2021/05/25 07:45:00;;;;;;;1.15;0.70;;;16.20;60.10;;;;;;5064494;28;20060;-78
2021/05/25 07:47:28;;;;;;;0.68;0.68;;;16.10;59.90;;;;;;5073176;28;20038;-78
2021/05/25 07:49:54;;;;;;;1.00;1.00;;;16.10;59.90;;;;;;5073155;28;20038;-78
2021/05/25 07:52:21;;;;;;;0.93;0.68;;;16.10;60.40;;;;;;5052036;28;20032;-78
2021/05/25 07:54:47;;;;;;;1.50;0.93;;;16.00;60.90;;;;;;5068864;28;20028;-78
2021/05/25 07:57:13;;;;;;;0.90;0.60;;;16.00;60.50;;;;;;5075362;28;20048;-78
2021/05/25 07:59:40;;;;;;;0.60;0.60;;;16.00;60.70;;;;;;5068450;28;20024;-78
2021/05/25 08:02:07;;;;;;;2.10;0.70;;;15.90;62.00;;;;;;5071604;28;20028;-79
2021/05/25 08:04:33;;;;;;;1.08;0.77;;;15.90;60.10;;;;;;5074068;28;20039;-78
2021/05/25 08:07:00;;;;;;;2.50;0.68;;;15.90;60.40;;;;;;5072738;28;20038;-78
2021/05/25 08:09:26;;;;;;;0.80;0.80;;;15.90;60.50;;;;;;5073898;28;20029;-78
2021/05/25 08:11:53;;;;;;;0.70;0.70;;;15.80;60.50;;;;;;5073880;28;20039;-78
2021/05/25 08:14:19;;;;;;;0.70;0.70;;;15.80;60.90;;;;;;5064539;28;20020;-78
2021/05/25 08:16:46;;;;;;;0.60;0.60;;;15.80;60.50;;;;;;5063053;28;20032;-78
2021/05/25 08:19:27;;;;;;;0.70;0.70;;;15.80;60.90;;;;;;5045688;28;20021;-78
2021/05/25 08:21:54;;;;;;;0.60;0.60;;;15.80;60.60;;;;;;5046170;28;20036;-78
2021/05/25 08:24:20;;;;;;;0.60;0.60;;;15.70;61.10;;;;;;5071519;28;20021;-78
2021/05/25 08:26:46;;;;;;;0.82;0.82;;;15.70;60.60;;;;;;5051124;28;20095;-78
2021/05/25 08:29:13;;;;;;;0.70;0.70;;;15.60;61.10;;;;;;5072774;28;20036;-78
2021/05/25 08:31:39;;;;;;;1.10;0.80;;;15.60;60.90;;;;;;5083870;28;20036;-77
2021/05/25 08:34:06;;;;;;;0.82;0.68;;;15.60;61.30;;;;;;5078940;28;20066;-78
2021/05/25 08:36:34;;;;;;;1.30;0.70;;;15.60;61.30;;;;;;5073539;28;20033;-78
2021/05/25 08:39:01;;;;;;;0.77;0.77;;;15.60;60.40;;;;;;5071152;28;20025;-78
2021/05/25 08:41:27;;;;;;;1.92;0.80;;;15.60;61.50;;;;;;5071750;28;20025;-78
2021/05/25 08:43:54;;;;;;;0.88;0.88;;;15.60;61.20;;;;;;5072241;28;20392;-78
2021/05/25 08:46:23;;;;;;;0.70;0.70;;;15.60;61.40;;;;;;5071595;28;20020;-78
2021/05/25 08:48:49;;;;;;;0.60;0.60;;;15.60;61.40;;;;;;5063544;28;20021;-78
2021/05/25 08:51:16;;;;;;;0.80;0.80;;;15.60;61.20;;;;;;5068037;28;20073;-78
2021/05/25 08:53:42;;;;;;;1.38;0.85;;;15.60;61.30;;;;;;5065692;28;20025;-77
2021/05/25 08:56:09;;;;;;;0.75;0.75;;;15.60;61.10;;;;;;5054180;28;20135;-78
2021/05/25 08:58:35;;;;;;;0.82;0.63;;;15.70;58.90;;;;;;5072358;28;20021;-78
2021/05/25 09:01:02;;;;;;;2.35;1.70;;;15.60;61.40;;;;;;5073746;28;20024;-77
2021/05/25 09:03:31;;;;;;;0.80;0.80;;;15.60;61.40;;;;;;5083642;28;20024;-78
2021/05/25 09:06:10;;;;;;;0.70;0.70;;;15.60;61.70;;;;;;5057343;28;20036;-78
2021/05/25 09:08:37;;;;;;;0.77;0.77;;;15.50;61.60;;;;;;5065812;28;20399;-78
2021/05/25 09:11:09;;;;;;;1.75;0.75;;;15.60;61.70;;;;;;5072923;28;20180;-77
2021/05/25 09:13:35;;;;;;;0.80;0.80;;;15.50;62.10;;;;;;5068881;28;20329;-78
2021/05/25 09:16:03;;;;;;;0.93;0.80;;;15.50;61.90;;;;;;5059448;28;20107;-78
2021/05/25 09:18:43;;;;;;;1.15;0.80;;;15.50;62.00;;;;;;5051717;28;20053;-78
2021/05/25 09:21:09;;;;;;;3.00;0.80;;;15.50;62.00;;;;;;5082457;28;20067;-77
2021/05/25 09:23:38;;;;;;;2.72;1.00;;;15.50;61.80;;;;;;5058052;28;20559;-78
2021/05/25 09:26:14;;;;;;;0.70;0.70;;;15.50;61.90;;;;;;5072114;28;20025;-78
2021/05/25 09:29:04;;;;;;;0.85;0.82;;;15.50;61.90;;;;;;5062658;28;20045;-77
2021/05/25 09:31:41;;;;;;;0.80;0.80;;;15.50;61.60;;;;;;5063986;28;20145;-78
2021/05/25 09:34:16;;;;;;;0.80;0.80;;;15.50;62.60;;;;;;5063449;28;20025;-78
2021/05/25 09:37:03;;;;;;;2.75;0.82;;;15.40;61.80;;;;;;5074515;28;20020;-77
2021/05/25 09:39:35;;;;;;;1.33;1.30;;;15.40;61.80;;;;;;5067064;28;20027;-77
2021/05/25 09:42:04;;;;;;;1.75;1.00;;;15.40;61.90;;;;;;5058031;28;20484;-78
2021/05/25 09:44:33;;;;;;;1.90;1.30;;;15.40;61.60;;;;;;5068519;28;20535;-77
2021/05/25 09:47:01;;;;;;;0.73;0.73;;;15.40;62.40;;;;;;5086480;28;20325;-77
2021/05/25 09:49:28;;;;;;;0.93;0.93;;;15.40;61.60;;;;;;5079401;28;20028;-77
2021/05/25 09:52:08;;;;;;;0.70;0.70;;;15.40;62.30;;;;;;5070956;28;20068;-78
2021/05/25 09:54:36;;;;;;;3.38;1.23;;;15.40;61.50;;;;;;5057155;28;20025;-78
2021/05/25 09:57:07;;;;;;;4.20;0.85;;;15.40;61.70;;;;;;5058138;28;20479;-78
2021/05/25 09:59:34;;;;;;;1.58;1.05;;;15.40;62.20;;;;;;5078070;28;20359;-77
2021/05/25 10:02:21;;;;;;;0.70;0.70;;;15.40;63.40;;;;;;5076094;28;20039;-77
2021/05/25 10:05:08;;;;;;;0.93;0.93;;;15.40;61.50;;;;;;5057084;28;20025;-77
2021/05/25 10:07:35;;;;;;;1.35;0.80;;;15.50;62.30;;;;;;5057197;28;20399;-77
2021/05/25 10:10:05;;;;;;;1.33;0.85;;;15.50;62.80;;;;;;5074820;28;20029;-78
2021/05/25 10:12:31;;;;;;;3.78;1.10;;;15.50;64.10;;;;;;5063720;28;20024;-78
2021/05/25 10:14:59;;;;;;;2.47;1.27;;;15.60;62.10;;;;;;5075639;28;20039;-77
2021/05/25 10:20:09;;;;;;;2.75;0.80;;;15.80;61.30;;;;;;5075685;28;20032;-77
2021/05/25 10:22:36;;;;;;;0.60;0.60;;;16.00;62.00;;;;;;5050013;28;20028;-78
2021/05/25 10:25:06;;;;;;;0.95;0.75;;;16.10;62.00;;;;;;5052562;28;20060;-77
2021/05/25 10:27:33;;;;;;;1.00;0.90;;;16.10;63.50;;;;;;5058266;28;20024;-77
2021/05/25 10:30:00;;;;;;;0.70;0.70;;;16.20;61.90;;;;;;5074419;28;20081;-77
2021/05/25 10:32:27;;;;;;;0.70;0.70;;;16.20;65.70;;;;;;5072288;28;20025;-77
2021/05/25 10:34:54;;;;;;;1.95;1.00;;;16.30;64.50;;;;;;5074900;28;20044;-78
2021/05/25 10:37:22;;;;;;;0.80;0.80;;;16.30;62.50;;;;;;5082593;28;20043;-78
2021/05/25 10:39:56;;;;;;;1.35;1.25;;;16.40;63.60;;;;;;5069591;28;20025;-77
2021/05/25 10:42:29;;;;;;;2.20;0.77;;;16.50;63.60;;;;;;5078888;28;20131;-77
2021/05/25 10:45:01;;;;;;;2.28;0.85;;;16.30;66.20;;;;;;5070940;28;20099;-77
2021/05/25 10:47:38;;;;;;;2.47;0.73;;;16.50;64.10;;;;;;5055790;28;20028;-77
2021/05/25 10:52:56;;;;;;;4.57;0.90;;;16.50;64.00;;;;;;5072882;28;20098;-78
2021/05/25 10:55:31;;;;;;;0.93;0.90;;;16.50;62.80;;;;;;5074511;28;20105;-78
2021/05/25 10:57:59;;;;;;;3.13;1.00;;;16.50;61.70;;;;;;5068897;28;20059;-78
2021/05/25 11:00:39;;;;;;;2.45;1.08;;;16.40;65.50;;;;;;5078646;28;20039;-78
2021/05/25 11:03:20;;;;;;;3.40;1.17;;;16.50;65.90;;;;;;5056838;28;20045;-78
2021/05/25 11:05:51;;;;;;;0.60;0.60;;;16.70;64.30;;;;;;5071481;28;20021;-78
2021/05/25 11:08:17;;;;;;;0.68;0.68;;;16.70;66.50;;;;;;5070662;28;20016;-78
2021/05/25 11:10:53;;;;;;;0.80;0.80;;;16.70;65.50;;;;;;5049697;28;20048;-78
2021/05/25 11:13:29;;;;;;;0.95;0.82;;;16.70;65.30;;;;;;5059066;28;20460;-79
2021/05/25 11:16:03;;;;;;;1.50;0.93;;;16.80;64.90;;;;;;5074740;28;20356;-77
2021/05/25 11:18:44;;;;;;;0.75;0.75;;;16.70;66.20;;;;;;5048923;28;20028;-78
2021/05/25 11:21:35;;;;;;;2.30;0.98;;;16.80;63.20;;;;;;5062577;28;20433;-78
2021/05/25 11:24:01;;;;;;;0.70;0.70;;;16.80;63.70;;;;;;5043403;28;20063;-78
2021/05/25 11:26:54;;;;;;;1.40;0.70;;;16.70;66.10;;;;;;5072913;28;20016;-78
2021/05/25 11:29:23;;;;;;;1.23;1.15;;;16.70;65.60;;;;;;5067047;28;20107;-77
2021/05/25 11:31:49;;;;;;;0.80;0.80;;;16.90;63.70;;;;;;5073587;28;20016;-78
2021/05/25 11:34:19;;;;;;;3.17;0.88;;;16.70;66.60;;;;;;5069709;28;20407;-77
2021/05/25 11:36:52;;;;;;;2.47;0.80;;;16.90;65.70;;;;;;5074289;28;20036;-78
2021/05/25 11:39:20;;;;;;;0.80;0.80;;;16.70;65.10;;;;;;5076537;28;20024;-77
2021/05/25 11:41:46;;;;;;;2.88;1.02;;;16.80;64.10;;;;;;5077242;28;20090;-78
2021/05/25 11:44:15;;;;;;;0.73;0.70;;;16.80;65.70;;;;;;5073175;28;20115;-78
2021/05/25 11:46:48;;;;;;;1.50;0.90;;;17.10;65.80;;;;;;5072460;28;20028;-78
2021/05/25 11:49:15;;;;;;;3.90;1.27;;;17.10;65.20;;;;;;5077630;28;20115;-77
2021/05/25 11:51:43;;;;;;;1.77;1.00;;;17.10;64.20;;;;;;5076023;28;20406;-78
2021/05/25 11:54:10;;;;;;;1.27;0.88;;;17.00;63.30;;;;;;5071125;28;20522;-78
2021/05/25 11:56:37;;;;;;;1.05;0.80;;;16.90;65.20;;;;;;5071140;28;20035;-78
2021/05/25 11:59:10;;;;;;;2.47;0.70;;;17.00;66.20;;;;;;5077774;28;20467;-78
2021/05/25 12:01:42;;;;;;;1.20;1.10;;;17.00;65.70;;;;;;5060175;28;20025;-78
2021/05/25 12:04:08;;;;;;;1.00;0.93;;;16.80;65.60;;;;;;5074038;28;20028;-78
2021/05/25 12:06:44;;;;;;;0.57;0.57;;;16.90;65.10;;;;;;5076106;28;20078;-78
2021/05/25 12:09:12;;;;;;;0.75;0.75;;;16.80;65.30;;;;;;5055035;28;20404;-78
2021/05/25 12:11:40;;;;;;;2.40;0.90;;;16.70;65.60;;;;;;5074300;28;20418;-77
2021/05/25 12:14:11;;;;;;;1.95;0.90;;;16.90;67.10;;;;;;5080631;28;20086;-77
2021/05/25 12:16:38;;;;;;;4.63;0.93;;;17.10;66.90;;;;;;5085423;28;20040;-77
2021/05/25 12:19:07;;;;;;;2.50;1.05;;;17.00;66.50;;;;;;5072655;28;20425;-77
2021/05/25 12:21:34;;;;;;;2.97;1.85;;;17.00;65.50;;;;;;5072611;28;20867;-78
2021/05/25 12:24:01;;;;;;;1.50;0.95;;;17.00;66.70;;;;;;5072808;28;20056;-78
2021/05/25 12:26:27;;;;;;;1.83;1.00;;;16.70;66.10;;;;;;5077582;28;20032;-77
2021/05/25 12:28:55;;;;;;;1.85;1.35;;;16.70;66.70;;;;;;5068786;28;20025;-78
2021/05/25 12:31:28;;;;;;;0.60;0.60;;;16.60;66.50;;;;;;5073448;28;20031;-77
2021/05/25 12:33:55;;;;;;;0.75;0.75;;;16.70;66.60;;;;;;5057056;28;20031;-78
2021/05/25 12:36:37;;;;;;;2.05;0.90;;;16.70;66.60;;;;;;5070150;28;20048;-78
2021/05/25 12:39:20;;;;;;;1.20;0.80;;;16.60;65.70;;;;;;5067893;28;20021;-78
2021/05/25 12:41:51;;;;;;;1.42;0.90;;;16.60;66.40;;;;;;5072078;28;20029;-78
2021/05/25 12:44:20;;;;;;;0.90;0.90;;;16.50;67.00;;;;;;5058604;28;20029;-78
2021/05/25 12:46:56;;;;;;;0.60;0.60;;;16.40;66.60;;;;;;5061585;28;20031;-77
2021/05/25 12:49:50;;;;;;;0.70;0.70;;;16.70;66.90;;;;;;5049997;28;20043;-77
2021/05/25 12:52:28;;;;;;;2.25;1.35;;;16.80;66.30;;;;;;5072196;28;20024;-78
2021/05/25 12:55:00;;;;;;;1.38;1.27;;;16.80;66.00;;;;;;5053998;28;20420;-78
2021/05/25 12:57:49;;;;;;;1.20;1.08;;;16.70;67.00;;;;;;5071782;28;20025;-77
2021/05/25 13:00:25;;;;;;;1.02;1.00;;;16.60;66.80;;;;;;5062877;28;20035;-78
2021/05/25 13:02:52;;;;;;;2.05;0.70;;;16.60;66.60;;;;;;5065623;28;20060;-78